sensor_id;sensor_type;location;lat;lon;timestamp;pressure;altitude;pressure_sealevel;temperature;humidity
64076;BME280;50327;51.328;12.324;2022-08-04T00:02:02;53007.03;;;-144.47;36.90
64076;BME280;50327;51.328;12.324;2022-08-04T00:04:52;52967.31;;;-144.47;38.14
64076;BME280;50327;51.328;12.324;2022-08-04T00:07:34;52983.22;;;-144.47;39.21
64076;BME280;50327;51.328;12.324;2022-08-04T00:10:05;53007.03;;;-144.47;39.86
64076;BME280;50327;51.328;12.324;2022-08-04T00:12:33;53030.88;;;-144.47;40.66
64076;BME280;50327;51.328;12.324;2022-08-04T00:15:03;53046.75;;;-144.47;41.33
64076;BME280;50327;51.328;12.324;2022-08-04T00:17:50;53024.91;;;-144.47;41.75
64076;BME280;50327;51.328;12.324;2022-08-04T00:20:19;53022.94;;;-144.47;41.95
64076;BME280;50327;51.328;12.324;2022-08-04T00:22:46;53009.03;;;-144.47;42.07
64076;BME280;50327;51.328;12.324;2022-08-04T00:25:12;53018.97;;;-144.47;42.67
64076;BME280;50327;51.328;12.324;2022-08-04T00:27:38;53013.00;;;-144.47;42.62
64076;BME280;50327;51.328;12.324;2022-08-04T00:30:04;53056.69;;;-144.47;42.76
64076;BME280;50327;51.328;12.324;2022-08-04T00:32:30;53030.88;;;-144.47;43.01
64076;BME280;50327;51.328;12.324;2022-08-04T00:34:58;53015.00;;;-144.47;42.81
64076;BME280;50327;51.328;12.324;2022-08-04T00:37:25;53046.75;;;-144.47;42.76
64076;BME280;50327;51.328;12.324;2022-08-04T00:39:52;53009.03;;;-144.47;43.31
64076;BME280;50327;51.328;12.324;2022-08-04T00:42:44;53036.84;;;-144.47;43.39
64076;BME280;50327;51.328;12.324;2022-08-04T00:50:43;53068.63;;;-144.47;43.06
64076;BME280;50327;51.328;12.324;2022-08-04T00:53:22;53038.81;;;-144.47;42.62
64076;BME280;50327;51.328;12.324;2022-08-04T00:58:28;53015.00;;;-144.47;42.60
64076;BME280;50327;51.328;12.324;2022-08-04T01:04:28;53044.78;;;-144.47;41.43
64076;BME280;50327;51.328;12.324;2022-08-04T01:06:38;53060.66;;;-144.47;40.67
64076;BME280;50327;51.328;12.324;2022-08-04T01:20:10;53042.78;;;-144.47;40.77
64076;BME280;50327;51.328;12.324;2022-08-04T01:30:56;53016.97;;;-144.47;41.09
64076;BME280;50327;51.328;12.324;2022-08-04T01:33:28;53030.88;;;-144.47;41.10
64076;BME280;50327;51.328;12.324;2022-08-04T01:35:55;53034.84;;;-144.47;41.13
64076;BME280;50327;51.328;12.324;2022-08-04T01:38:27;52997.09;;;-144.47;40.99
64076;BME280;50327;51.328;12.324;2022-08-04T01:41:03;53028.88;;;-144.47;40.96
64076;BME280;50327;51.328;12.324;2022-08-04T01:43:29;53026.91;;;-144.47;41.25
64076;BME280;50327;51.328;12.324;2022-08-04T01:45:57;53044.78;;;-144.47;41.35
64076;BME280;50327;51.328;12.324;2022-08-04T01:48:25;53020.94;;;-144.47;41.48
64076;BME280;50327;51.328;12.324;2022-08-04T01:51:08;53022.94;;;-144.47;41.67
64076;BME280;50327;51.328;12.324;2022-08-04T01:53:36;53028.88;;;-144.47;41.88
64076;BME280;50327;51.328;12.324;2022-08-04T01:56:03;53018.97;;;-144.47;42.43
64076;BME280;50327;51.328;12.324;2022-08-04T01:58:31;53036.84;;;-144.47;43.12
64076;BME280;50327;51.328;12.324;2022-08-04T02:00:59;53048.75;;;-144.47;44.01
64076;BME280;50327;51.328;12.324;2022-08-04T02:03:27;53038.81;;;-144.47;44.76
64076;BME280;50327;51.328;12.324;2022-08-04T02:05:59;53038.81;;;-144.47;45.36
64076;BME280;50327;51.328;12.324;2022-08-04T02:08:39;53056.69;;;-144.47;45.80
64076;BME280;50327;51.328;12.324;2022-08-04T02:11:15;53064.66;;;-144.47;46.29
64076;BME280;50327;51.328;12.324;2022-08-04T02:13:56;53064.66;;;-144.47;46.46
64076;BME280;50327;51.328;12.324;2022-08-04T02:21:29;53036.84;;;-144.47;47.09
64076;BME280;50327;51.328;12.324;2022-08-04T02:24:06;53042.78;;;-144.47;47.12
64076;BME280;50327;51.328;12.324;2022-08-04T02:26:34;53090.47;;;-144.47;47.17
64076;BME280;50327;51.328;12.324;2022-08-04T02:31:26;53066.63;;;-144.47;47.59
64076;BME280;50327;51.328;12.324;2022-08-04T02:36:34;53052.72;;;-144.47;47.71
64076;BME280;50327;51.328;12.324;2022-08-04T02:39:02;53046.75;;;-144.47;47.80
64076;BME280;50327;51.328;12.324;2022-08-04T02:41:28;53056.69;;;-144.47;47.93
64076;BME280;50327;51.328;12.324;2022-08-04T02:44:05;53060.66;;;-144.47;48.02
64076;BME280;50327;51.328;12.324;2022-08-04T02:46:34;53046.75;;;-144.47;48.03
64076;BME280;50327;51.328;12.324;2022-08-04T02:49:04;53062.66;;;-144.47;48.24
64076;BME280;50327;51.328;12.324;2022-08-04T02:51:35;53050.75;;;-144.47;48.27
64076;BME280;50327;51.328;12.324;2022-08-04T02:54:02;53096.41;;;-144.47;48.51
64076;BME280;50327;51.328;12.324;2022-08-04T02:56:30;53052.72;;;-144.47;48.67
64076;BME280;50327;51.328;12.324;2022-08-04T02:59:04;53084.50;;;-144.47;48.86
64076;BME280;50327;51.328;12.324;2022-08-04T03:01:30;53086.50;;;-144.47;48.98
64076;BME280;50327;51.328;12.324;2022-08-04T03:04:31;53054.72;;;-144.47;49.16
64076;BME280;50327;51.328;12.324;2022-08-04T03:24:27;53048.75;;;-144.47;49.85
64076;BME280;50327;51.328;12.324;2022-08-04T03:27:21;53062.66;;;-144.47;49.66
64076;BME280;50327;51.328;12.324;2022-08-04T03:30:06;53058.69;;;-144.47;49.53
64076;BME280;50327;51.328;12.324;2022-08-04T03:47:03;53116.28;;;-144.47;50.30
64076;BME280;50327;51.328;12.324;2022-08-04T03:49:58;53048.75;;;-144.47;50.38
64076;BME280;50327;51.328;12.324;2022-08-04T03:59:41;53094.44;;;-144.47;50.65
64076;BME280;50327;51.328;12.324;2022-08-04T04:04:40;53064.66;;;-144.47;50.45
64076;BME280;50327;51.328;12.324;2022-08-04T04:35:26;53122.25;;;-144.47;52.19
64076;BME280;50327;51.328;12.324;2022-08-04T04:38:20;53092.44;;;-144.47;52.64
64076;BME280;50327;51.328;12.324;2022-08-04T04:41:04;53106.34;;;-144.47;52.41
64076;BME280;50327;51.328;12.324;2022-08-04T04:43:47;53112.31;;;-144.47;52.44
64076;BME280;50327;51.328;12.324;2022-08-04T04:49:21;53092.44;;;-144.47;51.86
64076;BME280;50327;51.328;12.324;2022-08-04T04:52:20;53096.41;;;-144.47;51.94
64076;BME280;50327;51.328;12.324;2022-08-04T04:57:21;53076.56;;;-144.47;51.39
64076;BME280;50327;51.328;12.324;2022-08-04T04:59:57;53098.41;;;-144.47;51.28
64076;BME280;50327;51.328;12.324;2022-08-04T05:06:34;53068.63;;;-144.47;50.53
64076;BME280;50327;51.328;12.324;2022-08-04T05:16:50;53108.34;;;-144.47;48.60
64076;BME280;50327;51.328;12.324;2022-08-04T05:24:44;53076.56;;;-144.47;47.82
64076;BME280;50327;51.328;12.324;2022-08-04T05:27:17;53062.66;;;-144.47;47.73
64076;BME280;50327;51.328;12.324;2022-08-04T05:29:52;53048.75;;;-144.47;47.58
64076;BME280;50327;51.328;12.324;2022-08-04T05:32:23;53066.63;;;-144.47;47.30
64076;BME280;50327;51.328;12.324;2022-08-04T05:35:01;53068.63;;;-144.47;47.15
64076;BME280;50327;51.328;12.324;2022-08-04T05:37:27;53108.34;;;-144.47;47.21
64076;BME280;50327;51.328;12.324;2022-08-04T05:39:59;53094.44;;;-144.47;46.40
64076;BME280;50327;51.328;12.324;2022-08-04T05:42:28;53066.63;;;-144.47;46.23
64076;BME280;50327;51.328;12.324;2022-08-04T05:44:55;53076.56;;;-144.47;45.95
64076;BME280;50327;51.328;12.324;2022-08-04T05:47:21;53058.69;;;-144.47;45.80
64076;BME280;50327;51.328;12.324;2022-08-04T05:49:48;53054.72;;;-144.47;45.72
64076;BME280;50327;51.328;12.324;2022-08-04T05:52:14;53088.47;;;-144.47;45.41
64076;BME280;50327;51.328;12.324;2022-08-04T05:54:41;53072.59;;;-144.47;44.95
64076;BME280;50327;51.328;12.324;2022-08-04T05:57:07;53048.75;;;-144.47;44.98
64076;BME280;50327;51.328;12.324;2022-08-04T05:59:38;53070.59;;;-144.47;44.72
64076;BME280;50327;51.328;12.324;2022-08-04T06:02:07;53062.66;;;-144.47;44.51
64076;BME280;50327;51.328;12.324;2022-08-04T06:04:38;53026.91;;;-144.47;44.42
64076;BME280;50327;51.328;12.324;2022-08-04T06:07:04;53054.72;;;-144.47;44.38
64076;BME280;50327;51.328;12.324;2022-08-04T06:09:30;53094.44;;;-144.47;44.03
64076;BME280;50327;51.328;12.324;2022-08-04T06:11:59;53036.84;;;-144.47;44.02
64076;BME280;50327;51.328;12.324;2022-08-04T06:14:25;53044.78;;;-144.47;43.72
64076;BME280;50327;51.328;12.324;2022-08-04T06:16:53;53026.91;;;-144.47;43.59
64076;BME280;50327;51.328;12.324;2022-08-04T06:19:20;53040.81;;;-144.47;43.27
64076;BME280;50327;51.328;12.324;2022-08-04T06:21:50;53058.69;;;-144.47;42.57
64076;BME280;50327;51.328;12.324;2022-08-04T06:24:22;53016.97;;;-144.47;41.97
64076;BME280;50327;51.328;12.324;2022-08-04T06:26:50;53038.81;;;-144.47;41.92
64076;BME280;50327;51.328;12.324;2022-08-04T06:29:20;53062.66;;;-144.47;41.90
64076;BME280;50327;51.328;12.324;2022-08-04T06:31:59;52995.13;;;-144.47;41.71
64076;BME280;50327;51.328;12.324;2022-08-04T06:34:28;53050.75;;;-144.47;41.89
64076;BME280;50327;51.328;12.324;2022-08-04T06:36:54;53054.72;;;-144.47;41.65
64076;BME280;50327;51.328;12.324;2022-08-04T06:39:22;53028.88;;;-144.47;41.79
64076;BME280;50327;51.328;12.324;2022-08-04T06:41:49;53005.06;;;-144.47;41.53
64076;BME280;50327;51.328;12.324;2022-08-04T06:44:16;53022.94;;;-144.47;40.81
64076;BME280;50327;51.328;12.324;2022-08-04T06:46:43;53048.75;;;-144.47;40.82
64076;BME280;50327;51.328;12.324;2022-08-04T06:49:09;53026.91;;;-144.47;40.61
64076;BME280;50327;51.328;12.324;2022-08-04T06:51:36;53016.97;;;-144.47;40.80
64076;BME280;50327;51.328;12.324;2022-08-04T06:54:03;53048.75;;;-144.47;40.96
64076;BME280;50327;51.328;12.324;2022-08-04T06:56:29;53022.94;;;-144.47;40.84
64076;BME280;50327;51.328;12.324;2022-08-04T06:58:58;53064.66;;;-144.47;40.63
64076;BME280;50327;51.328;12.324;2022-08-04T07:01:25;53007.03;;;-144.47;40.74
64076;BME280;50327;51.328;12.324;2022-08-04T07:03:52;52983.22;;;-144.47;40.76
64076;BME280;50327;51.328;12.324;2022-08-04T07:06:17;53009.03;;;-144.47;40.69
64076;BME280;50327;51.328;12.324;2022-08-04T07:08:45;52997.09;;;-144.47;40.38
64076;BME280;50327;51.328;12.324;2022-08-04T07:11:11;53015.00;;;-144.47;40.23
64076;BME280;50327;51.328;12.324;2022-08-04T07:13:37;52979.22;;;-144.47;39.47
64076;BME280;50327;51.328;12.324;2022-08-04T07:16:05;53013.00;;;-144.47;39.53
64076;BME280;50327;51.328;12.324;2022-08-04T07:18:31;53015.00;;;-144.47;39.35
64076;BME280;50327;51.328;12.324;2022-08-04T07:20:57;53003.06;;;-144.47;39.54
64076;BME280;50327;51.328;12.324;2022-08-04T07:23:24;53016.97;;;-144.47;39.51
64076;BME280;50327;51.328;12.324;2022-08-04T07:25:51;53009.03;;;-144.47;39.13
64076;BME280;50327;51.328;12.324;2022-08-04T07:28:18;53020.94;;;-144.47;38.79
64076;BME280;50327;51.328;12.324;2022-08-04T07:30:44;52997.09;;;-144.47;38.71
64076;BME280;50327;51.328;12.324;2022-08-04T07:33:11;53028.88;;;-144.47;38.37
64076;BME280;50327;51.328;12.324;2022-08-04T07:38:07;53032.88;;;-144.47;37.59
64076;BME280;50327;51.328;12.324;2022-08-04T07:40:34;52997.09;;;-144.47;37.20
64076;BME280;50327;51.328;12.324;2022-08-04T07:43:00;53015.00;;;-144.47;37.45
64076;BME280;50327;51.328;12.324;2022-08-04T07:45:26;52981.22;;;-144.47;36.78
64076;BME280;50327;51.328;12.324;2022-08-04T07:47:51;53016.97;;;-144.47;36.98
64076;BME280;50327;51.328;12.324;2022-08-04T07:50:17;52979.22;;;-144.47;37.11
64076;BME280;50327;51.328;12.324;2022-08-04T07:52:44;52957.38;;;-144.47;37.49
64076;BME280;50327;51.328;12.324;2022-08-04T07:55:11;52959.38;;;-144.47;37.57
64076;BME280;50327;51.328;12.324;2022-08-04T07:57:37;52975.25;;;-144.47;37.45
64076;BME280;50327;51.328;12.324;2022-08-04T08:00:06;53005.06;;;-144.47;37.02
64076;BME280;50327;51.328;12.324;2022-08-04T08:02:33;52987.19;;;-144.47;36.88
64076;BME280;50327;51.328;12.324;2022-08-04T08:05:00;52963.34;;;-144.47;37.00
64076;BME280;50327;51.328;12.324;2022-08-04T08:07:26;52981.22;;;-144.47;36.74
64076;BME280;50327;51.328;12.324;2022-08-04T08:09:52;52993.13;;;-144.47;36.55
64076;BME280;50327;51.328;12.324;2022-08-04T08:12:17;52965.34;;;-144.47;36.42
64076;BME280;50327;51.328;12.324;2022-08-04T08:14:44;52975.25;;;-144.47;36.41
64076;BME280;50327;51.328;12.324;2022-08-04T08:17:09;52973.28;;;-144.47;36.21
64076;BME280;50327;51.328;12.324;2022-08-04T08:19:35;52965.34;;;-144.47;36.23
64076;BME280;50327;51.328;12.324;2022-08-04T08:22:01;52975.25;;;-144.47;36.08
64076;BME280;50327;51.328;12.324;2022-08-04T08:24:28;52961.34;;;-144.47;35.98
64076;BME280;50327;51.328;12.324;2022-08-04T08:26:53;52973.28;;;-144.47;35.91
64076;BME280;50327;51.328;12.324;2022-08-04T08:29:21;52969.31;;;-144.47;34.80
64076;BME280;50327;51.328;12.324;2022-08-04T08:31:47;52955.41;;;-144.47;34.89
64076;BME280;50327;51.328;12.324;2022-08-04T08:34:13;52953.41;;;-144.47;34.94
64076;BME280;50327;51.328;12.324;2022-08-04T08:36:45;52971.28;;;-144.47;34.46
64076;BME280;50327;51.328;12.324;2022-08-04T08:39:27;52911.69;;;-144.47;34.47
64076;BME280;50327;51.328;12.324;2022-08-04T08:44:37;52961.34;;;-144.47;34.27
64076;BME280;50327;51.328;12.324;2022-08-04T09:01:15;52899.78;;;-144.47;32.71
64076;BME280;50327;51.328;12.324;2022-08-04T09:03:59;52907.72;;;-144.47;32.76
64076;BME280;50327;51.328;12.324;2022-08-04T09:06:43;52911.69;;;-144.47;32.23
64076;BME280;50327;51.328;12.324;2022-08-04T09:09:34;52899.78;;;-144.47;32.21
64076;BME280;50327;51.328;12.324;2022-08-04T09:12:14;52913.69;;;-144.47;31.82
64076;BME280;50327;51.328;12.324;2022-08-04T09:14:59;52925.59;;;-144.47;31.91
64076;BME280;50327;51.328;12.324;2022-08-04T09:17:31;52937.53;;;-144.47;31.86
64076;BME280;50327;51.328;12.324;2022-08-04T09:20:28;52927.59;;;-144.47;31.03
64076;BME280;50327;51.328;12.324;2022-08-04T09:25:53;52889.84;;;-144.47;30.78
64076;BME280;50327;51.328;12.324;2022-08-04T09:28:25;52899.78;;;-144.47;30.48
64076;BME280;50327;51.328;12.324;2022-08-04T09:30:58;52907.72;;;-144.47;29.97
64076;BME280;50327;51.328;12.324;2022-08-04T09:36:14;52875.94;;;-144.47;30.07
64076;BME280;50327;51.328;12.324;2022-08-04T09:44:45;52852.13;;;-144.47;29.17
64076;BME280;50327;51.328;12.324;2022-08-04T09:47:37;52899.78;;;-144.47;28.93
64076;BME280;50327;51.328;12.324;2022-08-04T10:00:55;52881.91;;;-144.47;28.12
64076;BME280;50327;51.328;12.324;2022-08-04T10:03:26;52871.97;;;-144.47;28.24
64076;BME280;50327;51.328;12.324;2022-08-04T10:12:01;52891.84;;;-144.47;27.46
64076;BME280;50327;51.328;12.324;2022-08-04T10:14:39;52820.34;;;-144.47;27.26
64076;BME280;50327;51.328;12.324;2022-08-04T10:19:37;52897.81;;;-144.47;26.58
64076;BME280;50327;51.328;12.324;2022-08-04T10:22:07;52848.16;;;-144.47;26.58
64076;BME280;50327;51.328;12.324;2022-08-04T10:30:04;52838.22;;;-144.47;26.78
64076;BME280;50327;51.328;12.324;2022-08-04T10:33:10;52856.09;;;-144.47;26.58
64076;BME280;50327;51.328;12.324;2022-08-04T10:36:00;52844.19;;;-144.47;26.51
64076;BME280;50327;51.328;12.324;2022-08-04T10:38:30;52883.91;;;-144.47;26.63
64076;BME280;50327;51.328;12.324;2022-08-04T10:41:02;52868.00;;;-144.47;26.48
64076;BME280;50327;51.328;12.324;2022-08-04T10:46:15;52846.16;;;-144.47;26.42
64076;BME280;50327;51.328;12.324;2022-08-04T10:54:12;52814.38;;;-144.47;26.06
64076;BME280;50327;51.328;12.324;2022-08-04T10:56:48;52840.19;;;-144.47;26.01
64076;BME280;50327;51.328;12.324;2022-08-04T10:59:46;52838.22;;;-144.47;25.46
64076;BME280;50327;51.328;12.324;2022-08-04T11:02:37;52840.19;;;-144.47;25.73
64076;BME280;50327;51.328;12.324;2022-08-04T11:07:43;52824.31;;;-144.47;25.76
64076;BME280;50327;51.328;12.324;2022-08-04T11:10:09;52826.31;;;-144.47;25.58
64076;BME280;50327;51.328;12.324;2022-08-04T11:12:37;52832.25;;;-144.47;25.28
64076;BME280;50327;51.328;12.324;2022-08-04T11:15:24;52816.38;;;-144.47;25.04
64076;BME280;50327;51.328;12.324;2022-08-04T11:17:56;52842.19;;;-144.47;25.20
64076;BME280;50327;51.328;12.324;2022-08-04T11:20:28;52812.41;;;-144.47;25.21
64076;BME280;50327;51.328;12.324;2022-08-04T11:23:09;52824.31;;;-144.47;24.84
64076;BME280;50327;51.328;12.324;2022-08-04T11:31:04;52824.31;;;-144.47;24.49
64076;BME280;50327;51.328;12.324;2022-08-04T11:39:30;52828.28;;;-144.47;24.52
64076;BME280;50327;51.328;12.324;2022-08-04T11:44:42;52814.38;;;-144.47;24.46
64076;BME280;50327;51.328;12.324;2022-08-04T11:52:48;52808.44;;;-144.47;24.15
64076;BME280;50327;51.328;12.324;2022-08-04T11:55:17;52830.28;;;-144.47;24.20
64076;BME280;50327;51.328;12.324;2022-08-04T11:57:45;52816.38;;;-144.47;24.25
64076;BME280;50327;51.328;12.324;2022-08-04T12:00:13;52772.69;;;-144.47;24.54
64076;BME280;50327;51.328;12.324;2022-08-04T12:05:20;52812.41;;;-144.47;24.23
64076;BME280;50327;51.328;12.324;2022-08-04T12:13:05;52816.38;;;-144.47;24.18
64076;BME280;50327;51.328;12.324;2022-08-04T12:15:43;52784.59;;;-144.47;24.19
64076;BME280;50327;51.328;12.324;2022-08-04T12:20:48;52780.63;;;-144.47;24.24
64076;BME280;50327;51.328;12.324;2022-08-04T12:23:23;52804.44;;;-144.47;24.10
64076;BME280;50327;51.328;12.324;2022-08-04T12:25:53;52808.44;;;-144.47;24.15
64076;BME280;50327;51.328;12.324;2022-08-04T12:28:34;52760.75;;;-144.47;24.13
64076;BME280;50327;51.328;12.324;2022-08-04T12:31:16;52822.31;;;-144.47;24.30
64076;BME280;50327;51.328;12.324;2022-08-04T12:33:53;52792.53;;;-144.47;24.29
64076;BME280;50327;51.328;12.324;2022-08-04T12:36:28;52796.50;;;-144.47;24.19
64076;BME280;50327;51.328;12.324;2022-08-04T12:39:06;52778.63;;;-144.47;23.96
64076;BME280;50327;51.328;12.324;2022-08-04T12:41:39;52788.56;;;-144.47;24.03
64076;BME280;50327;51.328;12.324;2022-08-04T12:44:11;52808.44;;;-144.47;23.91
64076;BME280;50327;51.328;12.324;2022-08-04T12:46:37;52808.44;;;-144.47;23.82
64076;BME280;50327;51.328;12.324;2022-08-04T12:49:04;52796.50;;;-144.47;23.64
64076;BME280;50327;51.328;12.324;2022-08-04T12:51:39;52790.56;;;-144.47;23.68
64076;BME280;50327;51.328;12.324;2022-08-04T12:54:08;52768.69;;;-144.47;23.28
64076;BME280;50327;51.328;12.324;2022-08-04T12:56:35;52756.78;;;-144.47;22.81
64076;BME280;50327;51.328;12.324;2022-08-04T12:59:06;52740.91;;;-144.47;22.73
64076;BME280;50327;51.328;12.324;2022-08-04T13:01:33;52728.97;;;-144.47;22.34
64076;BME280;50327;51.328;12.324;2022-08-04T13:04:29;52693.22;;;-144.47;21.68
64076;BME280;50327;51.328;12.324;2022-08-04T13:07:08;52717.06;;;-144.47;21.45
64076;BME280;50327;51.328;12.324;2022-08-04T13:09:36;52685.28;;;-144.47;21.71
64076;BME280;50327;51.328;12.324;2022-08-04T13:12:11;52709.13;;;-144.47;21.88
64076;BME280;50327;51.328;12.324;2022-08-04T13:14:39;52719.06;;;-144.47;21.82
64076;BME280;50327;51.328;12.324;2022-08-04T13:17:05;52764.72;;;-144.47;22.29
64076;BME280;50327;51.328;12.324;2022-08-04T13:19:31;52740.91;;;-144.47;22.53
64076;BME280;50327;51.328;12.324;2022-08-04T13:21:57;52752.81;;;-144.47;22.72
64076;BME280;50327;51.328;12.324;2022-08-04T13:24:25;52764.72;;;-144.47;22.66
64076;BME280;50327;51.328;12.324;2022-08-04T13:27:05;52730.97;;;-144.47;22.53
64076;BME280;50327;51.328;12.324;2022-08-04T13:29:36;52734.94;;;-144.47;21.90
64076;BME280;50327;51.328;12.324;2022-08-04T13:32:04;52707.13;;;-144.47;21.69
64076;BME280;50327;51.328;12.324;2022-08-04T13:34:31;52689.25;;;-144.47;21.38
64076;BME280;50327;51.328;12.324;2022-08-04T13:36:58;52669.41;;;-144.47;21.19
64076;BME280;50327;51.328;12.324;2022-08-04T13:39:25;52685.28;;;-144.47;20.80
64076;BME280;50327;51.328;12.324;2022-08-04T13:41:54;52663.44;;;-144.47;20.94
64076;BME280;50327;51.328;12.324;2022-08-04T13:44:27;52717.06;;;-144.47;21.21
64076;BME280;50327;51.328;12.324;2022-08-04T13:46:55;52713.09;;;-144.47;21.35
64076;BME280;50327;51.328;12.324;2022-08-04T13:49:22;52681.31;;;-144.47;21.24
64076;BME280;50327;51.328;12.324;2022-08-04T13:51:55;52683.31;;;-144.47;21.10
64076;BME280;50327;51.328;12.324;2022-08-04T13:54:22;52667.41;;;-144.47;21.02
64076;BME280;50327;51.328;12.324;2022-08-04T13:56:51;52643.56;;;-144.47;21.24
64076;BME280;50327;51.328;12.324;2022-08-04T14:02:45;52681.31;;;-144.47;21.17
64076;BME280;50327;51.328;12.324;2022-08-04T14:05:21;52677.34;;;-144.47;21.06
64076;BME280;50327;51.328;12.324;2022-08-04T14:08:04;52655.50;;;-144.47;21.19
64076;BME280;50327;51.328;12.324;2022-08-04T14:10:30;52665.44;;;-144.47;20.92
64076;BME280;50327;51.328;12.324;2022-08-04T14:12:56;52689.25;;;-144.47;20.87
64076;BME280;50327;51.328;12.324;2022-08-04T14:15:36;52621.72;;;-144.47;20.87
64076;BME280;50327;51.328;12.324;2022-08-04T14:18:37;52589.97;;;-144.47;20.20
64076;BME280;50327;51.328;12.324;2022-08-04T14:21:07;52593.94;;;-144.47;19.75
64076;BME280;50327;51.328;12.324;2022-08-04T14:26:17;52593.94;;;-144.47;19.67
64076;BME280;50327;51.328;12.324;2022-08-04T14:28:43;52593.94;;;-144.47;19.53
64076;BME280;50327;51.328;12.324;2022-08-04T14:33:39;52566.13;;;-144.47;19.33
64076;BME280;50327;51.328;12.324;2022-08-04T14:36:06;52570.09;;;-144.47;19.30
64076;BME280;50327;51.328;12.324;2022-08-04T14:41:16;52591.94;;;-144.47;19.12
64076;BME280;50327;51.328;12.324;2022-08-04T14:43:44;52568.13;;;-144.47;19.11
64076;BME280;50327;51.328;12.324;2022-08-04T14:46:10;52546.25;;;-144.47;19.10
64076;BME280;50327;51.328;12.324;2022-08-04T14:48:37;52589.97;;;-144.47;19.33
64076;BME280;50327;51.328;12.324;2022-08-04T14:51:03;52617.75;;;-144.47;19.83
64076;BME280;50327;51.328;12.324;2022-08-04T14:53:29;52657.47;;;-144.47;20.32
64076;BME280;50327;51.328;12.324;2022-08-04T14:55:58;52649.53;;;-144.47;20.96
64076;BME280;50327;51.328;12.324;2022-08-04T14:58:31;52681.31;;;-144.47;21.27
64076;BME280;50327;51.328;12.324;2022-08-04T15:00:59;52705.16;;;-144.47;21.69
64076;BME280;50327;51.328;12.324;2022-08-04T15:03:27;52689.25;;;-144.47;21.84
64076;BME280;50327;51.328;12.324;2022-08-04T15:05:52;52701.19;;;-144.47;21.80
64076;BME280;50327;51.328;12.324;2022-08-04T15:08:19;52701.19;;;-144.47;21.78
64076;BME280;50327;51.328;12.324;2022-08-04T15:10:45;52675.34;;;-144.47;21.34
64076;BME280;50327;51.328;12.324;2022-08-04T15:13:11;52689.25;;;-144.47;21.02
64076;BME280;50327;51.328;12.324;2022-08-04T15:15:39;52657.47;;;-144.47;20.76
64076;BME280;50327;51.328;12.324;2022-08-04T15:18:11;52613.78;;;-144.47;20.36
64076;BME280;50327;51.328;12.324;2022-08-04T15:20:37;52611.81;;;-144.47;20.10
64076;BME280;50327;51.328;12.324;2022-08-04T15:23:04;52593.94;;;-144.47;20.15
64076;BME280;50327;51.328;12.324;2022-08-04T15:25:36;52587.97;;;-144.47;20.11
64076;BME280;50327;51.328;12.324;2022-08-04T15:28:04;52615.78;;;-144.47;20.04
64076;BME280;50327;51.328;12.324;2022-08-04T15:30:31;52605.84;;;-144.47;19.85
64076;BME280;50327;51.328;12.324;2022-08-04T15:33:00;52619.75;;;-144.47;20.16
64076;BME280;50327;51.328;12.324;2022-08-04T15:35:27;52647.56;;;-144.47;20.28
64076;BME280;50327;51.328;12.324;2022-08-04T15:40:46;52605.84;;;-144.47;20.58
64076;BME280;50327;51.328;12.324;2022-08-04T15:46:02;52633.66;;;-144.47;20.59
64076;BME280;50327;51.328;12.324;2022-08-04T15:48:30;52639.59;;;-144.47;20.37
64076;BME280;50327;51.328;12.324;2022-08-04T15:58:53;52603.84;;;-144.47;19.66
64076;BME280;50327;51.328;12.324;2022-08-04T16:01:22;52613.78;;;-144.47;20.16
64076;BME280;50327;51.328;12.324;2022-08-04T16:03:52;52633.66;;;-144.47;20.40
64076;BME280;50327;51.328;12.324;2022-08-04T16:16:51;52669.41;;;-144.47;21.34
64076;BME280;50327;51.328;12.324;2022-08-04T16:19:24;52613.78;;;-144.47;21.27
64076;BME280;50327;51.328;12.324;2022-08-04T16:21:56;52637.63;;;-144.47;20.71
64076;BME280;50327;51.328;12.324;2022-08-04T16:24:29;52605.84;;;-144.47;20.40
64076;BME280;50327;51.328;12.324;2022-08-04T16:26:59;52585.97;;;-144.47;20.24
64076;BME280;50327;51.328;12.324;2022-08-04T16:29:25;52585.97;;;-144.47;20.02
64076;BME280;50327;51.328;12.324;2022-08-04T16:34:36;52574.06;;;-144.47;19.79
64076;BME280;50327;51.328;12.324;2022-08-04T16:37:07;52572.09;;;-144.47;19.77
64076;BME280;50327;51.328;12.324;2022-08-04T16:39:33;52578.03;;;-144.47;19.56
64076;BME280;50327;51.328;12.324;2022-08-04T16:41:58;52536.34;;;-144.47;19.52
64076;BME280;50327;51.328;12.324;2022-08-04T16:44:34;52564.13;;;-144.47;19.64
64076;BME280;50327;51.328;12.324;2022-08-04T16:47:04;52585.97;;;-144.47;19.85
64076;BME280;50327;51.328;12.324;2022-08-04T16:49:31;52617.75;;;-144.47;20.27
64076;BME280;50327;51.328;12.324;2022-08-04T16:52:03;52609.81;;;-144.47;20.37
64076;BME280;50327;51.328;12.324;2022-08-04T16:54:30;52591.94;;;-144.47;20.31
64076;BME280;50327;51.328;12.324;2022-08-04T16:56:56;52593.94;;;-144.47;20.19
64076;BME280;50327;51.328;12.324;2022-08-04T16:59:22;52613.78;;;-144.47;20.24
64076;BME280;50327;51.328;12.324;2022-08-04T17:01:50;52651.53;;;-144.47;20.80
64076;BME280;50327;51.328;12.324;2022-08-04T17:04:16;52637.63;;;-144.47;21.14
64076;BME280;50327;51.328;12.324;2022-08-04T17:06:43;52675.34;;;-144.47;21.36
64076;BME280;50327;51.328;12.324;2022-08-04T17:11:35;52687.28;;;-144.47;22.05
64076;BME280;50327;51.328;12.324;2022-08-04T17:14:01;52701.19;;;-144.47;22.24
64076;BME280;50327;51.328;12.324;2022-08-04T17:16:27;52703.16;;;-144.47;22.63
64076;BME280;50327;51.328;12.324;2022-08-04T17:18:53;52689.25;;;-144.47;22.86
64076;BME280;50327;51.328;12.324;2022-08-04T17:21:22;52717.06;;;-144.47;22.75